OAS308 SKCL-MPTO
Flight info
| Callsign | OAS308 |
|---|---|
| Flight time | 1h 5m |
| Altitude | 34000 |
| Route | SIGIR A321 ASIKO UW90 BUSMO DCT IRATA DCT SIRIL SIRIL3 |
| Aircraft | A320/M-SDE3FGHIRWY/LB1 |
Departure
| Time | 2026-04-23 11:30 |
|---|---|
| Airport | Alfonso Bonilla Aragon International Airport (SKCL) |
Arrival
| Time | 2026-04-23 12:35 |
|---|---|
| Airport | Tocumen International Airport (MPTO) |
| Time | Latitude | Longitude | Altitude | Speed | Heading |
|---|---|---|---|---|---|
| 2026-04-23 11:16 | 3.53514 | -76.38639 | 3162 ft | 0 kts | 279° |
| 2026-04-23 11:23 | 3.53511 | -76.38616 | 3163 ft | 4 kts | 279° |
| 2026-04-23 11:23 | 3.53506 | -76.38590 | 3163 ft | 4 kts | 282° |
| 2026-04-23 11:24 | 3.53501 | -76.38568 | 3163 ft | 3 kts | 292° |
| 2026-04-23 11:24 | 3.53495 | -76.38557 | 3163 ft | 2 kts | 319° |
| 2026-04-23 11:24 | 3.53486 | -76.38551 | 3163 ft | 2 kts | 356° |
| 2026-04-23 11:24 | 3.53475 | -76.38551 | 3163 ft | 2 kts | 7° |
| 2026-04-23 11:25 | 3.53464 | -76.38552 | 3164 ft | 2 kts | 10° |
| 2026-04-23 11:25 | 3.53461 | -76.38553 | 3162 ft | 0 kts | 10° |
| 2026-04-23 11:25 | 3.53487 | -76.38548 | 3162 ft | 9 kts | 10° |
| 2026-04-23 11:26 | 3.53539 | -76.38537 | 3162 ft | 6 kts | 24° |
| 2026-04-23 11:26 | 3.53556 | -76.38506 | 3163 ft | 3 kts | 89° |
| 2026-04-23 11:26 | 3.53547 | -76.38482 | 3162 ft | 6 kts | 115° |
| 2026-04-23 11:26 | 3.53484 | -76.38474 | 3162 ft | 12 kts | 192° |
| 2026-04-23 11:27 | 3.53403 | -76.38494 | 3162 ft | 12 kts | 193° |
| 2026-04-23 11:27 | 3.53318 | -76.38508 | 3162 ft | 13 kts | 187° |
| 2026-04-23 11:27 | 3.53230 | -76.38521 | 3162 ft | 13 kts | 190° |
| 2026-04-23 11:27 | 3.53136 | -76.38537 | 3162 ft | 14 kts | 190° |
| 2026-04-23 11:28 | 3.53036 | -76.38554 | 3162 ft | 15 kts | 185° |
| 2026-04-23 11:28 | 3.52988 | -76.38479 | 3162 ft | 14 kts | 98° |
| 2026-04-23 11:28 | 3.53026 | -76.38392 | 3161 ft | 14 kts | 27° |
| 2026-04-23 11:28 | 3.53042 | -76.38388 | 3160 ft | 0 kts | 6° |
| 2026-04-23 11:29 | 3.53063 | -76.38386 | 3160 ft | 17 kts | 8° |
| 2026-04-23 11:29 | 3.53445 | -76.38320 | 3162 ft | 92 kts | 9° |
| 2026-04-23 11:29 | 3.54286 | -76.38172 | 3165 ft | 150 kts | 9° |
| 2026-04-23 11:29 | 3.55429 | -76.37969 | 3469 ft | 172 kts | 10° |
| 2026-04-23 11:30 | 3.56646 | -76.37756 | 4059 ft | 183 kts | 10° |
| 2026-04-23 11:30 | 3.57932 | -76.37555 | 4701 ft | 190 kts | 9° |
| 2026-04-23 11:30 | 3.59262 | -76.37334 | 5178 ft | 201 kts | 10° |
| 2026-04-23 11:30 | 3.60699 | -76.37094 | 5484 ft | 218 kts | 10° |
| 2026-04-23 11:31 | 3.62274 | -76.36815 | 5744 ft | 241 kts | 12° |
| 2026-04-23 11:31 | 3.63947 | -76.36500 | 6442 ft | 246 kts | 12° |
| 2026-04-23 11:31 | 3.65614 | -76.36109 | 7288 ft | 247 kts | 24° |
| 2026-04-23 11:31 | 3.67044 | -76.35178 | 8104 ft | 247 kts | 46° |
| 2026-04-23 11:32 | 3.67994 | -76.33747 | 8829 ft | 251 kts | 68° |
| 2026-04-23 11:32 | 3.68302 | -76.32014 | 9541 ft | 258 kts | 91° |
| 2026-04-23 11:32 | 3.67863 | -76.30264 | 10206 ft | 265 kts | 116° |
| 2026-04-23 11:32 | 3.66697 | -76.28824 | 10886 ft | 271 kts | 143° |
| 2026-04-23 11:33 | 3.65002 | -76.28015 | 11555 ft | 274 kts | 169° |
| 2026-04-23 11:33 | 3.63109 | -76.28033 | 12228 ft | 274 kts | 196° |
| 2026-04-23 11:33 | 3.61376 | -76.28808 | 12912 ft | 275 kts | 210° |
| 2026-04-23 11:33 | 3.59704 | -76.29747 | 13544 ft | 280 kts | 212° |
| 2026-04-23 11:34 | 3.58215 | -76.31085 | 13713 ft | 299 kts | 237° |
| 2026-04-23 11:34 | 3.57423 | -76.33061 | 13864 ft | 318 kts | 264° |
| 2026-04-23 11:34 | 3.57657 | -76.35306 | 14004 ft | 338 kts | 292° |
| 2026-04-23 11:34 | 3.58831 | -76.37391 | 14313 ft | 350 kts | 303° |
| 2026-04-23 11:35 | 3.60200 | -76.39431 | 14835 ft | 356 kts | 304° |
| 2026-04-23 11:35 | 3.61621 | -76.41474 | 15428 ft | 359 kts | 305° |
| 2026-04-23 11:35 | 3.63060 | -76.43532 | 16008 ft | 363 kts | 305° |
| 2026-04-23 11:35 | 3.64509 | -76.45617 | 16581 ft | 366 kts | 304° |
| 2026-04-23 11:36 | 3.65959 | -76.47725 | 17160 ft | 370 kts | 304° |
| 2026-04-23 11:36 | 3.67413 | -76.49859 | 17705 ft | 373 kts | 304° |
| 2026-04-23 11:36 | 3.68877 | -76.52020 | 18245 ft | 376 kts | 304° |
| 2026-04-23 11:36 | 3.70350 | -76.54196 | 18774 ft | 379 kts | 304° |
| 2026-04-23 11:37 | 3.71836 | -76.56388 | 19278 ft | 382 kts | 304° |
| 2026-04-23 11:37 | 3.73368 | -76.58580 | 19743 ft | 386 kts | 308° |
| 2026-04-23 11:37 | 3.75234 | -76.60523 | 20206 ft | 390 kts | 320° |
| 2026-04-23 11:37 | 3.77433 | -76.62063 | 20663 ft | 393 kts | 330° |
| 2026-04-23 11:38 | 3.79817 | -76.63421 | 21115 ft | 396 kts | 330° |
| 2026-04-23 11:38 | 3.82219 | -76.64796 | 21544 ft | 399 kts | 330° |
| 2026-04-23 11:38 | 3.84636 | -76.66185 | 21961 ft | 403 kts | 330° |
| 2026-04-23 11:38 | 3.87071 | -76.67589 | 22396 ft | 405 kts | 329° |
| 2026-04-23 11:39 | 3.89520 | -76.68999 | 22802 ft | 408 kts | 329° |
| 2026-04-23 11:39 | 3.91992 | -76.70422 | 23194 ft | 411 kts | 330° |
| 2026-04-23 11:39 | 3.94477 | -76.71852 | 23572 ft | 414 kts | 330° |
| 2026-04-23 11:39 | 3.96983 | -76.73293 | 23934 ft | 417 kts | 330° |
| 2026-04-23 11:40 | 3.99502 | -76.74744 | 24304 ft | 419 kts | 329° |
| 2026-04-23 11:40 | 4.02035 | -76.76207 | 24648 ft | 422 kts | 329° |
| 2026-04-23 11:40 | 4.04590 | -76.77681 | 24983 ft | 425 kts | 329° |
| 2026-04-23 11:40 | 4.07159 | -76.79161 | 25319 ft | 428 kts | 329° |
| 2026-04-23 11:41 | 4.09747 | -76.80651 | 25647 ft | 430 kts | 329° |
| 2026-04-23 11:41 | 4.12352 | -76.82147 | 25970 ft | 433 kts | 329° |
| 2026-04-23 11:41 | 4.14975 | -76.83657 | 26287 ft | 436 kts | 329° |
| 2026-04-23 11:41 | 4.17614 | -76.85177 | 26605 ft | 439 kts | 329° |
| 2026-04-23 11:42 | 4.20262 | -76.86707 | 26911 ft | 441 kts | 329° |
| 2026-04-23 11:42 | 4.22925 | -76.88248 | 27197 ft | 443 kts | 329° |
| 2026-04-23 11:42 | 4.25602 | -76.89796 | 27493 ft | 445 kts | 329° |
| 2026-04-23 11:42 | 4.28292 | -76.91351 | 27781 ft | 448 kts | 329° |
| 2026-04-23 11:43 | 4.30998 | -76.92916 | 28074 ft | 450 kts | 330° |
| 2026-04-23 11:43 | 4.33718 | -76.94489 | 28361 ft | 452 kts | 329° |
| 2026-04-23 11:43 | 4.36449 | -76.96074 | 28644 ft | 455 kts | 329° |
| 2026-04-23 11:43 | 4.39194 | -76.97671 | 28933 ft | 457 kts | 329° |
| 2026-04-23 11:44 | 4.41948 | -76.99275 | 29223 ft | 459 kts | 329° |
| 2026-04-23 11:44 | 4.44718 | -77.00886 | 29494 ft | 461 kts | 330° |
| 2026-04-23 11:44 | 4.47502 | -77.02502 | 29763 ft | 463 kts | 330° |
| 2026-04-23 11:44 | 4.50294 | -77.04122 | 30016 ft | 466 kts | 330° |
| 2026-04-23 11:45 | 4.53108 | -77.05751 | 30266 ft | 468 kts | 330° |
| 2026-04-23 11:45 | 4.55893 | -77.07365 | 30507 ft | 470 kts | 330° |
| 2026-04-23 11:45 | 4.58725 | -77.09010 | 30743 ft | 472 kts | 330° |
| 2026-04-23 11:45 | 4.61571 | -77.10667 | 30975 ft | 474 kts | 330° |
| 2026-04-23 11:46 | 4.64428 | -77.12329 | 31197 ft | 476 kts | 330° |
| 2026-04-23 11:46 | 4.67335 | -77.14022 | 31507 ft | 476 kts | 330° |
| 2026-04-23 11:46 | 4.70197 | -77.15690 | 31821 ft | 476 kts | 330° |
| 2026-04-23 11:46 | 4.73023 | -77.17332 | 32124 ft | 477 kts | 330° |
| 2026-04-23 11:47 | 4.75896 | -77.19001 | 32424 ft | 477 kts | 330° |
| 2026-04-23 11:47 | 4.78766 | -77.20671 | 32717 ft | 477 kts | 330° |
| 2026-04-23 11:47 | 4.81637 | -77.22340 | 33004 ft | 478 kts | 330° |
| 2026-04-23 11:47 | 4.84514 | -77.24013 | 33300 ft | 478 kts | 330° |
| 2026-04-23 11:48 | 4.87389 | -77.25682 | 33596 ft | 477 kts | 330° |
| 2026-04-23 11:48 | 4.90267 | -77.27355 | 33873 ft | 479 kts | 330° |
| 2026-04-23 11:48 | 4.93149 | -77.29032 | 33994 ft | 478 kts | 330° |
| 2026-04-23 11:49 | 4.98806 | -77.32327 | 34020 ft | 467 kts | 330° |
| 2026-04-23 11:49 | 5.04415 | -77.35583 | 34020 ft | 465 kts | 330° |
| 2026-04-23 11:50 | 5.10014 | -77.38837 | 33977 ft | 465 kts | 330° |
| 2026-04-23 11:50 | 5.15613 | -77.42094 | 33966 ft | 465 kts | 330° |
| 2026-04-23 11:51 | 5.21198 | -77.45346 | 33931 ft | 464 kts | 330° |
| 2026-04-23 11:51 | 5.26782 | -77.48601 | 33929 ft | 464 kts | 330° |
| 2026-04-23 11:52 | 5.32363 | -77.51857 | 33927 ft | 464 kts | 330° |
| 2026-04-23 11:52 | 5.37948 | -77.55112 | 33926 ft | 464 kts | 330° |
| 2026-04-23 11:53 | 5.43542 | -77.58362 | 33925 ft | 465 kts | 330° |
| 2026-04-23 11:53 | 5.49137 | -77.61617 | 33924 ft | 465 kts | 330° |
| 2026-04-23 11:54 | 5.54721 | -77.64874 | 33918 ft | 464 kts | 330° |
| 2026-04-23 11:54 | 5.59363 | -77.67583 | 33913 ft | 464 kts | 330° |
| 2026-04-23 11:55 | 5.64955 | -77.70843 | 33912 ft | 464 kts | 330° |
| 2026-04-23 11:55 | 5.70543 | -77.74102 | 33911 ft | 464 kts | 330° |
| 2026-04-23 11:56 | 5.76129 | -77.77366 | 33910 ft | 465 kts | 330° |
| 2026-04-23 11:56 | 5.81718 | -77.80629 | 33912 ft | 465 kts | 330° |
| 2026-04-23 11:57 | 5.87312 | -77.83890 | 33913 ft | 465 kts | 330° |
| 2026-04-23 11:57 | 5.92908 | -77.87158 | 33918 ft | 465 kts | 330° |
| 2026-04-23 11:58 | 5.98503 | -77.90429 | 33918 ft | 465 kts | 330° |
| 2026-04-23 11:58 | 6.04092 | -77.93693 | 33918 ft | 465 kts | 330° |
| 2026-04-23 11:59 | 6.09689 | -77.96953 | 33917 ft | 465 kts | 330° |
| 2026-04-23 11:59 | 6.15283 | -78.00209 | 33909 ft | 464 kts | 330° |
| 2026-04-23 12:00 | 6.20862 | -78.03480 | 33910 ft | 464 kts | 330° |
| 2026-04-23 12:00 | 6.26442 | -78.06758 | 33908 ft | 464 kts | 330° |
| 2026-04-23 12:01 | 6.32026 | -78.10019 | 33907 ft | 464 kts | 329° |
| 2026-04-23 12:01 | 6.37610 | -78.13276 | 33908 ft | 464 kts | 329° |
| 2026-04-23 12:02 | 6.43186 | -78.16541 | 33903 ft | 463 kts | 329° |
| 2026-04-23 12:02 | 6.48759 | -78.19802 | 33908 ft | 463 kts | 329° |
| 2026-04-23 12:03 | 6.54290 | -78.23043 | 33903 ft | 463 kts | 329° |
| 2026-04-23 12:03 | 6.59864 | -78.26307 | 33907 ft | 464 kts | 329° |
| 2026-04-23 12:04 | 6.65433 | -78.29570 | 33912 ft | 463 kts | 329° |
| 2026-04-23 12:04 | 6.71007 | -78.32823 | 33916 ft | 463 kts | 329° |
| 2026-04-23 12:05 | 6.76549 | -78.36113 | 33921 ft | 463 kts | 328° |
| 2026-04-23 12:05 | 6.82048 | -78.39472 | 33921 ft | 462 kts | 328° |
| 2026-04-23 12:06 | 6.87549 | -78.42832 | 33923 ft | 462 kts | 328° |
| 2026-04-23 12:06 | 6.95813 | -78.47827 | 33929 ft | 462 kts | 328° |
| 2026-04-23 12:07 | 7.01320 | -78.51153 | 33930 ft | 461 kts | 328° |
| 2026-04-23 12:07 | 7.06824 | -78.54475 | 33934 ft | 461 kts | 328° |
| 2026-04-23 12:08 | 7.12321 | -78.57800 | 33937 ft | 461 kts | 328° |
| 2026-04-23 12:08 | 7.17808 | -78.61131 | 33930 ft | 461 kts | 328° |
| 2026-04-23 12:09 | 7.23294 | -78.64461 | 33923 ft | 460 kts | 328° |
| 2026-04-23 12:09 | 7.28772 | -78.67785 | 33920 ft | 459 kts | 328° |
| 2026-04-23 12:10 | 7.34242 | -78.71098 | 33913 ft | 459 kts | 328° |
| 2026-04-23 12:10 | 7.39706 | -78.74416 | 33909 ft | 458 kts | 328° |
| 2026-04-23 12:11 | 7.45173 | -78.77726 | 33906 ft | 458 kts | 328° |
| 2026-04-23 12:11 | 7.50203 | -78.81615 | 33899 ft | 456 kts | 311° |
| 2026-04-23 12:12 | 7.54314 | -78.86517 | 33898 ft | 456 kts | 308° |
| 2026-04-23 12:12 | 7.56294 | -78.89018 | 33086 ft | 460 kts | 306° |
| 2026-04-23 12:12 | 7.58247 | -78.91577 | 32348 ft | 460 kts | 306° |
| 2026-04-23 12:13 | 7.60178 | -78.94136 | 31810 ft | 456 kts | 306° |
| 2026-04-23 12:13 | 7.62071 | -78.96631 | 31315 ft | 452 kts | 307° |
| 2026-04-23 12:13 | 7.64010 | -78.99154 | 30819 ft | 447 kts | 307° |
| 2026-04-23 12:13 | 7.65918 | -79.01608 | 30334 ft | 442 kts | 307° |
| 2026-04-23 12:14 | 7.67816 | -79.04026 | 29852 ft | 438 kts | 308° |
| 2026-04-23 12:14 | 7.69698 | -79.06415 | 29369 ft | 433 kts | 308° |
| 2026-04-23 12:14 | 7.71535 | -79.08751 | 28874 ft | 429 kts | 307° |
| 2026-04-23 12:14 | 7.73381 | -79.11098 | 28365 ft | 425 kts | 307° |
| 2026-04-23 12:15 | 7.75204 | -79.13423 | 27853 ft | 421 kts | 307° |
| 2026-04-23 12:15 | 7.77011 | -79.15736 | 27337 ft | 418 kts | 307° |
| 2026-04-23 12:15 | 7.78794 | -79.18024 | 26698 ft | 412 kts | 307° |
| 2026-04-23 12:15 | 7.80554 | -79.20285 | 26013 ft | 408 kts | 307° |
| 2026-04-23 12:16 | 7.82300 | -79.22522 | 25343 ft | 404 kts | 307° |
| 2026-04-23 12:16 | 7.84025 | -79.24726 | 24739 ft | 397 kts | 307° |
| 2026-04-23 12:16 | 7.85724 | -79.26894 | 24207 ft | 390 kts | 307° |
| 2026-04-23 12:16 | 7.87387 | -79.29019 | 23723 ft | 382 kts | 307° |
| 2026-04-23 12:17 | 7.89014 | -79.31097 | 23225 ft | 374 kts | 307° |
| 2026-04-23 12:17 | 7.90612 | -79.33141 | 22747 ft | 367 kts | 307° |
| 2026-04-23 12:17 | 7.92178 | -79.35150 | 22288 ft | 361 kts | 307° |
| 2026-04-23 12:17 | 7.93717 | -79.37123 | 21828 ft | 355 kts | 307° |
| 2026-04-23 12:18 | 7.95231 | -79.39064 | 21403 ft | 348 kts | 307° |
| 2026-04-23 12:18 | 7.96714 | -79.40965 | 20985 ft | 342 kts | 307° |
| 2026-04-23 12:18 | 7.98174 | -79.42836 | 20563 ft | 336 kts | 307° |
| 2026-04-23 12:18 | 7.99605 | -79.44678 | 20149 ft | 331 kts | 307° |
| 2026-04-23 12:19 | 8.01016 | -79.46491 | 19738 ft | 326 kts | 307° |
| 2026-04-23 12:19 | 8.02411 | -79.48280 | 19329 ft | 322 kts | 307° |
| 2026-04-23 12:19 | 8.03792 | -79.50043 | 18945 ft | 318 kts | 307° |
| 2026-04-23 12:19 | 8.05157 | -79.51786 | 18547 ft | 315 kts | 307° |
| 2026-04-23 12:20 | 8.06630 | -79.53411 | 18171 ft | 314 kts | 319° |
| 2026-04-23 12:20 | 8.08432 | -79.54635 | 17798 ft | 312 kts | 334° |
| 2026-04-23 12:20 | 8.10465 | -79.55371 | 17435 ft | 311 kts | 348° |
| 2026-04-23 12:20 | 8.12612 | -79.55593 | 17096 ft | 311 kts | 1° |
| 2026-04-23 12:21 | 8.14778 | -79.55561 | 16731 ft | 312 kts | 1° |
| 2026-04-23 12:21 | 8.16948 | -79.55532 | 16368 ft | 312 kts | 0° |
| 2026-04-23 12:21 | 8.19126 | -79.55505 | 15987 ft | 313 kts | 0° |
| 2026-04-23 12:21 | 8.21307 | -79.55479 | 15611 ft | 314 kts | 0° |
| 2026-04-23 12:22 | 8.23497 | -79.55454 | 15242 ft | 315 kts | 0° |
| 2026-04-23 12:22 | 8.25691 | -79.55428 | 14869 ft | 316 kts | 0° |
| 2026-04-23 12:22 | 8.27885 | -79.55399 | 14493 ft | 316 kts | 0° |
| 2026-04-23 12:22 | 8.30084 | -79.55371 | 14124 ft | 316 kts | 0° |
| 2026-04-23 12:23 | 8.32285 | -79.55343 | 13748 ft | 316 kts | 0° |
| 2026-04-23 12:23 | 8.34487 | -79.55314 | 13381 ft | 316 kts | 0° |
| 2026-04-23 12:23 | 8.36684 | -79.55288 | 13007 ft | 316 kts | 0° |
| 2026-04-23 12:23 | 8.38878 | -79.55261 | 12645 ft | 315 kts | 0° |
| 2026-04-23 12:24 | 8.41072 | -79.55233 | 12238 ft | 316 kts | 0° |
| 2026-04-23 12:24 | 8.43264 | -79.55208 | 11906 ft | 313 kts | 0° |
| 2026-04-23 12:24 | 8.45444 | -79.55181 | 11534 ft | 312 kts | 0° |
| 2026-04-23 12:24 | 8.47613 | -79.55149 | 11136 ft | 312 kts | 0° |
| 2026-04-23 12:25 | 8.49768 | -79.55118 | 10764 ft | 311 kts | 0° |
| 2026-04-23 12:25 | 8.51912 | -79.55092 | 10504 ft | 305 kts | 0° |
| 2026-04-23 12:25 | 8.54031 | -79.55068 | 10113 ft | 304 kts | 0° |
| 2026-04-23 12:25 | 8.56132 | -79.55045 | 9900 ft | 297 kts | 0° |
| 2026-04-23 12:26 | 8.58162 | -79.55021 | 9764 ft | 286 kts | 0° |
| 2026-04-23 12:26 | 8.60125 | -79.54998 | 9513 ft | 279 kts | 1° |
| 2026-04-23 12:26 | 8.62060 | -79.54972 | 9099 ft | 278 kts | 1° |
| 2026-04-23 12:26 | 8.63953 | -79.54946 | 8698 ft | 276 kts | 1° |
| 2026-04-23 12:27 | 8.65861 | -79.54919 | 8305 ft | 272 kts | 1° |
| 2026-04-23 12:27 | 8.67775 | -79.54894 | 7837 ft | 271 kts | 1° |
| 2026-04-23 12:27 | 8.69644 | -79.54873 | 7433 ft | 266 kts | 1° |
| 2026-04-23 12:27 | 8.71457 | -79.54853 | 7038 ft | 262 kts | 1° |
| 2026-04-23 12:28 | 8.72688 | -79.54838 | 6782 ft | 262 kts | 1° |
| 2026-04-23 12:28 | 8.73753 | -79.54826 | 6565 ft | 262 kts | 1° |
| 2026-04-23 12:28 | 8.75575 | -79.54803 | 6195 ft | 261 kts | 1° |
| 2026-04-23 12:28 | 8.77369 | -79.54755 | 6010 ft | 256 kts | 7° |
| 2026-04-23 12:29 | 8.78993 | -79.54098 | 5743 ft | 253 kts | 34° |
| 2026-04-23 12:29 | 8.80457 | -79.53110 | 5434 ft | 253 kts | 32° |
| 2026-04-23 12:29 | 8.81969 | -79.52212 | 5096 ft | 251 kts | 30° |
| 2026-04-23 12:29 | 8.83475 | -79.51360 | 4756 ft | 244 kts | 30° |
| 2026-04-23 12:30 | 8.84925 | -79.50540 | 4437 ft | 234 kts | 30° |
| 2026-04-23 12:30 | 8.86316 | -79.49750 | 4147 ft | 225 kts | 30° |
| 2026-04-23 12:30 | 8.87654 | -79.48989 | 3847 ft | 217 kts | 30° |
| 2026-04-23 12:30 | 8.88965 | -79.48243 | 3553 ft | 209 kts | 30° |
| 2026-04-23 12:31 | 8.90217 | -79.47532 | 3278 ft | 203 kts | 29° |
| 2026-04-23 12:31 | 8.91399 | -79.46861 | 3035 ft | 189 kts | 29° |
| 2026-04-23 12:31 | 8.92504 | -79.46233 | 2772 ft | 180 kts | 30° |
| 2026-04-23 12:31 | 8.93556 | -79.45634 | 2550 ft | 167 kts | 30° |
| 2026-04-23 12:32 | 8.94520 | -79.45086 | 2337 ft | 152 kts | 29° |
| 2026-04-23 12:32 | 8.95435 | -79.44566 | 2130 ft | 147 kts | 29° |
| 2026-04-23 12:32 | 8.96307 | -79.44071 | 1937 ft | 145 kts | 29° |
| 2026-04-23 12:32 | 8.97195 | -79.43566 | 1742 ft | 145 kts | 30° |
| 2026-04-23 12:33 | 8.98069 | -79.43069 | 1552 ft | 144 kts | 29° |
| 2026-04-23 12:33 | 8.98942 | -79.42573 | 1365 ft | 144 kts | 29° |
| 2026-04-23 12:33 | 8.99814 | -79.42077 | 1170 ft | 143 kts | 30° |
| 2026-04-23 12:33 | 9.00681 | -79.41584 | 985 ft | 143 kts | 29° |
| 2026-04-23 12:34 | 9.01544 | -79.41093 | 793 ft | 142 kts | 29° |
| 2026-04-23 12:34 | 9.02404 | -79.40605 | 585 ft | 142 kts | 29° |
| 2026-04-23 12:34 | 9.03249 | -79.40123 | 411 ft | 141 kts | 29° |
| 2026-04-23 12:34 | 9.04103 | -79.39636 | 252 ft | 141 kts | 29° |
| 2026-04-23 12:35 | 9.04959 | -79.39153 | 50 ft | 140 kts | 28° |
| 2026-04-23 12:35 | 9.05711 | -79.38722 | 31 ft | 99 kts | 30° |
| 2026-04-23 12:35 | 9.06165 | -79.38464 | 31 ft | 54 kts | 29° |
| 2026-04-23 12:35 | 9.06389 | -79.38378 | 30 ft | 25 kts | 349° |
| 2026-04-23 12:36 | 9.06467 | -79.38377 | 30 ft | 0 kts | 0° |
| 2026-04-23 12:36 | 9.06510 | -79.38376 | 30 ft | 13 kts | 0° |
| 2026-04-23 12:36 | 9.06624 | -79.38386 | 30 ft | 17 kts | 338° |
| 2026-04-23 12:37 | 9.06711 | -79.38444 | 30 ft | 14 kts | 328° |
| 2026-04-23 12:37 | 9.06757 | -79.38488 | 30 ft | 0 kts | 316° |